sensor_id;sensor_type;location;lat;lon;timestamp;temperature;humidity
40249;DHT22;25969;49.970;11.062;2022-08-01T04:19:32;17.20;99.90
40249;DHT22;25969;49.970;11.062;2022-08-01T04:29:33;17.50;99.90
40249;DHT22;25969;49.970;11.062;2022-08-01T04:39:34;18.00;99.90
40249;DHT22;25969;49.970;11.062;2022-08-01T04:49:38;18.40;99.90
40249;DHT22;25969;49.970;11.062;2022-08-01T04:59:42;18.80;99.90
40249;DHT22;25969;49.970;11.062;2022-08-01T05:09:43;19.10;99.90
40249;DHT22;25969;49.970;11.062;2022-08-01T05:19:46;19.30;99.90
40249;DHT22;25969;49.970;11.062;2022-08-01T05:29:47;19.50;99.90
40249;DHT22;25969;49.970;11.062;2022-08-01T05:39:48;19.60;99.90
40249;DHT22;25969;49.970;11.062;2022-08-01T05:49:48;19.90;99.90
40249;DHT22;25969;49.970;11.062;2022-08-01T05:59:49;20.40;99.90
40249;DHT22;25969;49.970;11.062;2022-08-01T06:09:50;20.30;99.90
40249;DHT22;25969;49.970;11.062;2022-08-01T06:19:51;20.20;99.90
40249;DHT22;25969;49.970;11.062;2022-08-01T06:29:52;20.30;99.90
40249;DHT22;25969;49.970;11.062;2022-08-01T06:39:53;20.70;99.90
40249;DHT22;25969;49.970;11.062;2022-08-01T06:49:54;21.30;99.90
40249;DHT22;25969;49.970;11.062;2022-08-01T06:59:55;21.50;99.90
40249;DHT22;25969;49.970;11.062;2022-08-01T07:09:56;22.00;99.90
40249;DHT22;25969;49.970;11.062;2022-08-01T07:19:57;22.80;99.90
40249;DHT22;25969;49.970;11.062;2022-08-01T07:29:58;23.50;98.80
40249;DHT22;25969;49.970;11.062;2022-08-01T07:39:58;23.90;96.70
40249;DHT22;25969;49.970;11.062;2022-08-01T07:49:59;24.40;94.50
40249;DHT22;25969;49.970;11.062;2022-08-01T08:00:02;25.40;92.00
40249;DHT22;25969;49.970;11.062;2022-08-01T08:10:05;24.90;92.40
40249;DHT22;25969;49.970;11.062;2022-08-01T08:20:07;25.80;90.40
40249;DHT22;25969;49.970;11.062;2022-08-01T08:30:08;25.70;89.20
40249;DHT22;25969;49.970;11.062;2022-08-01T08:40:10;25.90;85.90
40249;DHT22;25969;49.970;11.062;2022-08-01T08:50:11;25.60;87.60
40249;DHT22;25969;49.970;11.062;2022-08-01T09:00:13;25.70;88.00
40249;DHT22;25969;49.970;11.062;2022-08-01T09:10:14;28.50;74.10
40249;DHT22;25969;49.970;11.062;2022-08-01T09:20:25;27.70;75.10
40249;DHT22;25969;49.970;11.062;2022-08-01T09:30:26;27.80;73.90
40249;DHT22;25969;49.970;11.062;2022-08-01T09:40:44;26.80;74.70
40249;DHT22;25969;49.970;11.062;2022-08-01T09:50:50;28.10;71.40
40249;DHT22;25969;49.970;11.062;2022-08-01T10:00:58;26.40;75.20
40249;DHT22;25969;49.970;11.062;2022-08-01T10:11:11;27.30;74.60
40249;DHT22;25969;49.970;11.062;2022-08-01T10:21:12;28.30;70.40
40249;DHT22;25969;49.970;11.062;2022-08-01T10:31:13;30.40;62.60
40249;DHT22;25969;49.970;11.062;2022-08-01T10:41:15;37.00;47.50
40249;DHT22;25969;49.970;11.062;2022-08-01T10:51:19;34.40;48.40
40249;DHT22;25969;49.970;11.062;2022-08-01T11:01:30;30.00;59.70
40249;DHT22;25969;49.970;11.062;2022-08-01T11:11:32;29.00;62.70
40249;DHT22;25969;49.970;11.062;2022-08-01T11:32:23;34.70;50.30
40249;DHT22;25969;49.970;11.062;2022-08-01T11:42:24;41.00;39.30
40249;DHT22;25969;49.970;11.062;2022-08-01T11:52:29;36.00;42.60
40249;DHT22;25969;49.970;11.062;2022-08-01T12:02:32;31.70;51.40
40249;DHT22;25969;49.970;11.062;2022-08-01T12:12:35;33.40;50.50
40249;DHT22;25969;49.970;11.062;2022-08-01T12:22:37;41.50;37.10
40249;DHT22;25969;49.970;11.062;2022-08-01T12:32:39;38.70;39.00
40249;DHT22;25969;49.970;11.062;2022-08-01T12:42:41;32.10;48.80
40249;DHT22;25969;49.970;11.062;2022-08-01T12:52:43;30.30;55.00
40249;DHT22;25969;49.970;11.062;2022-08-01T13:02:46;31.40;51.60
40249;DHT22;25969;49.970;11.062;2022-08-01T13:12:52;30.40;51.70
40249;DHT22;25969;49.970;11.062;2022-08-01T13:22:53;29.30;54.90
40249;DHT22;25969;49.970;11.062;2022-08-01T13:33:00;30.80;52.30
40249;DHT22;25969;49.970;11.062;2022-08-01T13:43:01;31.00;51.60
40249;DHT22;25969;49.970;11.062;2022-08-01T13:53:02;32.40;48.20
40249;DHT22;25969;49.970;11.062;2022-08-01T14:03:03;32.40;46.70
40249;DHT22;25969;49.970;11.062;2022-08-01T14:13:03;31.40;49.40
40249;DHT22;25969;49.970;11.062;2022-08-01T14:23:04;30.80;48.70
40249;DHT22;25969;49.970;11.062;2022-08-01T14:33:05;29.50;52.30
40249;DHT22;25969;49.970;11.062;2022-08-01T14:43:06;29.30;53.50
40249;DHT22;25969;49.970;11.062;2022-08-01T14:53:07;30.10;52.80
40249;DHT22;25969;49.970;11.062;2022-08-01T15:03:08;30.40;50.90
40249;DHT22;25969;49.970;11.062;2022-08-01T15:13:08;30.70;51.50
40249;DHT22;25969;49.970;11.062;2022-08-01T15:23:09;29.80;50.90
40249;DHT22;25969;49.970;11.062;2022-08-01T15:33:11;30.00;50.40
40249;DHT22;25969;49.970;11.062;2022-08-01T15:43:12;29.90;50.60
40249;DHT22;25969;49.970;11.062;2022-08-01T15:53:13;29.10;52.60
40249;DHT22;25969;49.970;11.062;2022-08-01T16:03:15;28.50;53.20
40249;DHT22;25969;49.970;11.062;2022-08-01T16:13:16;28.20;53.60
40249;DHT22;25969;49.970;11.062;2022-08-01T16:23:16;27.70;55.20
40249;DHT22;25969;49.970;11.062;2022-08-01T16:33:17;27.30;55.60
40249;DHT22;25969;49.970;11.062;2022-08-01T16:43:18;27.00;55.70
40249;DHT22;25969;49.970;11.062;2022-08-01T16:53:21;27.20;55.60
40249;DHT22;25969;49.970;11.062;2022-08-01T17:03:22;27.70;56.00
40249;DHT22;25969;49.970;11.062;2022-08-01T17:13:23;27.10;56.10
40249;DHT22;25969;49.970;11.062;2022-08-01T17:23:24;26.80;57.40
40249;DHT22;25969;49.970;11.062;2022-08-01T17:33:24;26.70;58.10
40249;DHT22;25969;49.970;11.062;2022-08-01T17:43:25;26.40;58.70
40249;DHT22;25969;49.970;11.062;2022-08-01T17:53:26;26.20;59.40
40249;DHT22;25969;49.970;11.062;2022-08-01T18:03:27;26.20;63.70
40249;DHT22;25969;49.970;11.062;2022-08-01T18:13:27;25.70;67.60
40249;DHT22;25969;49.970;11.062;2022-08-01T18:23:28;25.40;70.70
40249;DHT22;25969;49.970;11.062;2022-08-01T18:33:29;24.60;73.90
40249;DHT22;25969;49.970;11.062;2022-08-01T18:43:30;23.80;77.60
40249;DHT22;25969;49.970;11.062;2022-08-01T18:53:31;23.00;80.70
40249;DHT22;25969;49.970;11.062;2022-08-01T19:03:31;22.30;83.50
40249;DHT22;25969;49.970;11.062;2022-08-01T19:13:32;21.60;87.30
40249;DHT22;25969;49.970;11.062;2022-08-01T19:23:34;21.20;90.60
40249;DHT22;25969;49.970;11.062;2022-08-01T19:33:55;20.90;92.70
40249;DHT22;25969;49.970;11.062;2022-08-01T19:43:57;20.50;94.20
40249;DHT22;25969;49.970;11.062;2022-08-01T19:54:04;20.30;96.50
40249;DHT22;25969;49.970;11.062;2022-08-01T20:04:06;20.10;98.30
40249;DHT22;25969;49.970;11.062;2022-08-01T20:14:11;20.00;99.90
40249;DHT22;25969;49.970;11.062;2022-08-01T20:24:16;19.90;99.90
40249;DHT22;25969;49.970;11.062;2022-08-01T20:34:19;19.80;99.90
40249;DHT22;25969;49.970;11.062;2022-08-01T20:44:21;19.70;99.90
40249;DHT22;25969;49.970;11.062;2022-08-01T20:54:22;19.70;99.90
40249;DHT22;25969;49.970;11.062;2022-08-01T21:14:57;19.70;99.90
40249;DHT22;25969;49.970;11.062;2022-08-01T21:25:03;19.60;99.90
40249;DHT22;25969;49.970;11.062;2022-08-01T21:35:06;19.90;99.90
40249;DHT22;25969;49.970;11.062;2022-08-01T21:45:08;20.20;99.90
40249;DHT22;25969;49.970;11.062;2022-08-01T21:55:55;20.50;99.50
